Artesian, SD

1:37 AM CDT on October 14, 2019 (GMT -0500)
NE of Letcher | | Change Station
Active Advisory: Flood Warning

Elev 1302 ft 43.91 °N, 98.11 °W | Updated 6 minutes ago

Clear
Clear
30.6 °F
Feels Like 31 °F
N
0
Wind Variable Wind from SE
Gusts 0.0 mph

Today
High -- | Low -- °F
--% Chance of Precip.
Yesterday
High -- | Low -- °F
Precip. -- in
Pressure 30.04 in
Visibility 10.0 miles
Clouds Clear
Windchill 31 °F
Dew Point 29 °F
Humidity 93%
Rainfall 0.00 in
Snow Depth Not available.
7:44 AM 6:49 PM
Full, 100% visible
METAR KMHE 140553Z AUTO 20004KT 10SM CLR 00/M02 A3000 RMK AO2 SLP170 T00001017 10044 21006 400831006 53002
Pressure 30.04 in
Visibility 10.0 miles
Clouds Clear
Windchill 31 °F
Dew Point 29 °F
Humidity 93%
Rainfall 0.00 in
Snow Depth Not available.
7:44 AM 6:49 PM
Full, 100% visible
METAR KMHE 140553Z AUTO 20004KT 10SM CLR 00/M02 A3000 RMK AO2 SLP170 T00001017 10044 21006 400831006 53002

Get Your Daily Forecast Email!

Thanks for signing up!

Be on the lookout for a verification email in your inbox.

You'll start receiving severe weather alerts in your inbox..

×

10-Day Weather Forecast

Almanac

Astronomy

Oct. 14, 2019 Rise Set
Actual Time
Civil Twilight
Nautical Twilight
Astronomical Twilight
Moon
Length of Visible Light
Length of Day
Tomorrow will be .
, % of the Moon is Illuminated

Today's Extremes

State Highs State Lows

Community

WunderPhotos

Category 6

Welcome to Category 6. This is the collective home for Weather Underground's featured writeups by Dr. Jeff Masters (right), Bob Henson (left), Chris Burt, and other regular contributors.

Nearby

Air Quality

  Air Quality AQ Index Pollutant
Not available.

Snow Depth

Station Depth Elevation

Earthquake Activity

City Distance Mag. Time & Date
Minimum magnitude displayed is 2.5.

Coastal Water Temperatures

Place Temperature

Stations

Nearby Weather Stations

Station Location Temp. Windchill Dew Point Humidity Wind Precip. Elev Updated Type
                   

Watches & Warnings

Flood Warning
Issued: 10:16 AM CDT Oct. 13, 2019 – National Weather Service

The Flood Warning continues for
the James River near Forestburg.
* Until further notice.
* At 9 am Sunday the stage was 13.13 feet.
* Minor flooding is occurring and minor flooding is forecast.
* Flood stage is 12.00 feet.
* Forecast... the river will continue rising to near 13.8 feet by
Friday October 18. Additional rises may be possible thereafter.
* At stages near 14.0 feet... many of the County and township roads
along the river are under water.


Lat... Lon 4420 9822 4420 9810 4402 9802 4393 9798
          4393 9812 4409 9816